sensor_id;sensor_type;location;lat;lon;timestamp;pressure;altitude;pressure_sealevel;temperature;humidity
3082;BME280;1551;51.046;7.010;2024-02-21T00:01:34;101705.84;;;11.13;76.74
3082;BME280;1551;51.046;7.010;2024-02-21T00:04:23;101703.25;;;11.06;76.50
3082;BME280;1551;51.046;7.010;2024-02-21T00:07:12;101702.41;;;11.04;76.87
3082;BME280;1551;51.046;7.010;2024-02-21T00:10:01;101696.44;;;11.10;77.23
3082;BME280;1551;51.046;7.010;2024-02-21T00:12:50;101693.88;;;11.05;76.62
3082;BME280;1551;51.046;7.010;2024-02-21T00:15:39;101683.63;;;11.01;77.73
3082;BME280;1551;51.046;7.010;2024-02-21T00:18:28;101686.19;;;11.04;77.90
3082;BME280;1551;51.046;7.010;2024-02-21T00:21:17;101681.06;;;11.07;77.35
3082;BME280;1551;51.046;7.010;2024-02-21T00:24:07;101674.25;;;11.06;77.45
3082;BME280;1551;51.046;7.010;2024-02-21T00:26:55;101677.69;;;11.17;77.83
3082;BME280;1551;51.046;7.010;2024-02-21T00:29:44;101674.25;;;11.14;78.02
3082;BME280;1551;51.046;7.010;2024-02-21T00:32:33;101670.00;;;11.17;77.67
3082;BME280;1551;51.046;7.010;2024-02-21T00:35:23;101665.75;;;11.22;77.78
3082;BME280;1551;51.046;7.010;2024-02-21T00:38:12;101661.47;;;11.24;78.03
3082;BME280;1551;51.046;7.010;2024-02-21T00:41:01;101653.78;;;11.18;78.14
3082;BME280;1551;51.046;7.010;2024-02-21T00:43:50;101660.59;;;11.13;78.27
3082;BME280;1551;51.046;7.010;2024-02-21T00:46:39;101646.91;;;11.14;78.21
3082;BME280;1551;51.046;7.010;2024-02-21T00:49:28;101648.63;;;11.14;78.48
3082;BME280;1551;51.046;7.010;2024-02-21T00:52:17;101639.22;;;11.08;78.70
3082;BME280;1551;51.046;7.010;2024-02-21T00:55:07;101638.38;;;11.12;79.12
3082;BME280;1551;51.046;7.010;2024-02-21T00:57:57;101632.41;;;11.09;79.13
3082;BME280;1551;51.046;7.010;2024-02-21T01:00:45;101630.66;;;11.03;78.57
3082;BME280;1551;51.046;7.010;2024-02-21T01:03:34;101631.50;;;11.02;79.50
3082;BME280;1551;51.046;7.010;2024-02-21T01:06:23;101630.69;;;11.14;79.16
3082;BME280;1551;51.046;7.010;2024-02-21T01:09:13;101633.28;;;11.18;79.11
3082;BME280;1551;51.046;7.010;2024-02-21T01:12:03;101628.13;;;11.12;79.76
3082;BME280;1551;51.046;7.010;2024-02-21T01:14:52;101623.88;;;11.14;79.42
3082;BME280;1551;51.046;7.010;2024-02-21T01:17:41;101630.69;;;11.14;79.51
3082;BME280;1551;51.046;7.010;2024-02-21T01:20:31;101627.28;;;11.10;79.50
3082;BME280;1551;51.046;7.010;2024-02-21T01:23:19;101626.47;;;11.20;79.51
3082;BME280;1551;51.046;7.010;2024-02-21T01:26:09;101612.78;;;11.15;79.26
3082;BME280;1551;51.046;7.010;2024-02-21T01:29:02;101622.16;;;11.19;79.49
3082;BME280;1551;51.046;7.010;2024-02-21T01:31:50;101612.81;;;11.23;79.65
3082;BME280;1551;51.046;7.010;2024-02-21T01:34:39;101607.66;;;11.21;79.39
3082;BME280;1551;51.046;7.010;2024-02-21T01:37:28;101601.66;;;11.09;79.59
3082;BME280;1551;51.046;7.010;2024-02-21T01:40:17;101606.78;;;11.09;79.85
3082;BME280;1551;51.046;7.010;2024-02-21T01:43:15;101596.53;;;11.07;79.86
3082;BME280;1551;51.046;7.010;2024-02-21T01:46:05;101593.09;;;11.03;79.97
3082;BME280;1551;51.046;7.010;2024-02-21T01:48:55;101576.88;;;10.97;79.45
3082;BME280;1551;51.046;7.010;2024-02-21T01:51:44;101571.69;;;10.88;79.92
3082;BME280;1551;51.046;7.010;2024-02-21T01:54:34;101580.25;;;10.87;79.81
3082;BME280;1551;51.046;7.010;2024-02-21T01:57:24;101569.16;;;10.85;80.10
3082;BME280;1551;51.046;7.010;2024-02-21T02:00:13;101570.03;;;10.90;79.99
3082;BME280;1551;51.046;7.010;2024-02-21T02:03:03;101564.88;;;10.88;80.07
3082;BME280;1551;51.046;7.010;2024-02-21T02:05:53;101543.53;;;10.86;80.28
3082;BME280;1551;51.046;7.010;2024-02-21T02:08:42;101550.38;;;10.87;80.35
3082;BME280;1551;51.046;7.010;2024-02-21T02:11:32;101546.94;;;10.78;79.99
3082;BME280;1551;51.046;7.010;2024-02-21T02:14:21;101545.25;;;10.84;80.17
3082;BME280;1551;51.046;7.010;2024-02-21T02:17:10;101546.09;;;10.86;80.70
3082;BME280;1551;51.046;7.010;2024-02-21T02:19:59;101549.53;;;10.90;80.26
3082;BME280;1551;51.046;7.010;2024-02-21T02:22:48;101540.13;;;10.83;80.10
3082;BME280;1551;51.046;7.010;2024-02-21T02:25:38;101534.16;;;10.88;80.93
3082;BME280;1551;51.046;7.010;2024-02-21T02:28:27;101529.03;;;10.87;80.22
3082;BME280;1551;51.046;7.010;2024-02-21T02:31:16;101518.78;;;10.84;80.19
3082;BME280;1551;51.046;7.010;2024-02-21T02:34:05;101502.56;;;10.76;80.57
3082;BME280;1551;51.046;7.010;2024-02-21T02:36:54;101501.69;;;10.71;80.45
3082;BME280;1551;51.046;7.010;2024-02-21T02:39:43;101499.09;;;10.68;80.59
3082;BME280;1551;51.046;7.010;2024-02-21T02:42:32;101491.44;;;10.68;80.37
3082;BME280;1551;51.046;7.010;2024-02-21T02:45:22;101488.06;;;10.78;80.95
3082;BME280;1551;51.046;7.010;2024-02-21T02:48:12;101487.19;;;10.83;80.76
3082;BME280;1551;51.046;7.010;2024-02-21T02:51:01;101498.28;;;10.81;80.68
3082;BME280;1551;51.046;7.010;2024-02-21T02:53:50;101493.16;;;10.81;80.74
3082;BME280;1551;51.046;7.010;2024-02-21T02:56:39;101482.91;;;10.81;80.02
3082;BME280;1551;51.046;7.010;2024-02-21T02:59:28;101497.44;;;10.86;80.75
3082;BME280;1551;51.046;7.010;2024-02-21T03:02:17;101485.47;;;10.81;80.45
3082;BME280;1551;51.046;7.010;2024-02-21T03:05:17;101492.34;;;10.92;80.61
3082;BME280;1551;51.046;7.010;2024-02-21T03:08:06;101493.19;;;10.94;80.35
3082;BME280;1551;51.046;7.010;2024-02-21T03:10:55;101485.50;;;10.97;79.91
3082;BME280;1551;51.046;7.010;2024-02-21T03:13:44;101480.38;;;10.97;80.26
3082;BME280;1551;51.046;7.010;2024-02-21T03:16:33;101473.53;;;10.93;80.45
3082;BME280;1551;51.046;7.010;2024-02-21T03:19:22;101465.88;;;10.92;79.60
3082;BME280;1551;51.046;7.010;2024-02-21T03:22:11;101454.78;;;10.90;79.95
3082;BME280;1551;51.046;7.010;2024-02-21T03:25:00;101451.34;;;10.91;80.65
3082;BME280;1551;51.046;7.010;2024-02-21T03:27:49;101456.50;;;11.01;80.62
3082;BME280;1551;51.046;7.010;2024-02-21T03:30:38;101452.22;;;10.91;80.60
3082;BME280;1551;51.046;7.010;2024-02-21T03:33:26;101439.41;;;10.87;80.36
3082;BME280;1551;51.046;7.010;2024-02-21T03:36:15;101431.72;;;10.93;80.57
3082;BME280;1551;51.046;7.010;2024-02-21T03:39:04;101433.41;;;10.95;79.96
3082;BME280;1551;51.046;7.010;2024-02-21T03:41:54;101442.81;;;10.84;80.27
3082;BME280;1551;51.046;7.010;2024-02-21T03:44:43;101441.09;;;10.73;80.53
3082;BME280;1551;51.046;7.010;2024-02-21T03:47:32;101433.41;;;10.79;80.34
3082;BME280;1551;51.046;7.010;2024-02-21T03:50:21;101430.00;;;10.68;80.50
3082;BME280;1551;51.046;7.010;2024-02-21T03:53:10;101430.00;;;10.72;80.21
3082;BME280;1551;51.046;7.010;2024-02-21T03:56:02;101429.13;;;10.66;80.31
3082;BME280;1551;51.046;7.010;2024-02-21T03:58:53;101427.44;;;10.63;81.12
3082;BME280;1551;51.046;7.010;2024-02-21T04:01:42;101439.34;;;10.60;81.69
3082;BME280;1551;51.046;7.010;2024-02-21T04:04:30;101438.50;;;10.56;81.18
3082;BME280;1551;51.046;7.010;2024-02-21T04:07:20;101426.56;;;10.54;81.43
3082;BME280;1551;51.046;7.010;2024-02-21T04:10:09;101429.09;;;10.54;81.75
3082;BME280;1551;51.046;7.010;2024-02-21T04:12:58;101435.94;;;10.52;81.55
3082;BME280;1551;51.046;7.010;2024-02-21T04:15:47;101436.78;;;10.52;81.61
3082;BME280;1551;51.046;7.010;2024-02-21T04:18:35;101437.66;;;10.59;81.89
3082;BME280;1551;51.046;7.010;2024-02-21T04:21:24;101439.34;;;10.54;81.62
3082;BME280;1551;51.046;7.010;2024-02-21T04:24:14;101426.56;;;10.52;81.95
3082;BME280;1551;51.046;7.010;2024-02-21T04:27:03;101424.84;;;10.51;81.27
3082;BME280;1551;51.046;7.010;2024-02-21T04:29:53;101418.88;;;10.54;81.20
3082;BME280;1551;51.046;7.010;2024-02-21T04:32:42;101413.78;;;10.57;81.33
3082;BME280;1551;51.046;7.010;2024-02-21T04:35:31;101405.25;;;10.55;81.93
3082;BME280;1551;51.046;7.010;2024-02-21T04:38:20;101402.69;;;10.50;82.30
3082;BME280;1551;51.046;7.010;2024-02-21T04:41:09;101410.34;;;10.55;82.46
3082;BME280;1551;51.046;7.010;2024-02-21T04:43:58;101417.19;;;10.57;81.91
3082;BME280;1551;51.046;7.010;2024-02-21T04:46:47;101412.06;;;10.54;82.03
3082;BME280;1551;51.046;7.010;2024-02-21T04:49:36;101407.81;;;10.55;81.75
3082;BME280;1551;51.046;7.010;2024-02-21T04:52:25;101418.03;;;10.58;81.51
3082;BME280;1551;51.046;7.010;2024-02-21T04:55:14;101412.03;;;10.45;82.04
3082;BME280;1551;51.046;7.010;2024-02-21T04:58:03;101413.72;;;10.42;81.99
3082;BME280;1551;51.046;7.010;2024-02-21T05:00:52;101418.00;;;10.43;82.04
3082;BME280;1551;51.046;7.010;2024-02-21T05:03:43;101414.56;;;10.39;81.91
3082;BME280;1551;51.046;7.010;2024-02-21T05:06:32;101404.34;;;10.38;82.73
3082;BME280;1551;51.046;7.010;2024-02-21T05:09:21;101402.63;;;10.36;82.37
3082;BME280;1551;51.046;7.010;2024-02-21T05:12:10;101383.00;;;10.23;82.69
3082;BME280;1551;51.046;7.010;2024-02-21T05:14:59;101399.19;;;10.30;82.55
3082;BME280;1551;51.046;7.010;2024-02-21T05:17:47;101396.66;;;10.38;82.22
3082;BME280;1551;51.046;7.010;2024-02-21T05:20:36;101400.06;;;10.41;82.07
3082;BME280;1551;51.046;7.010;2024-02-21T05:23:25;101397.53;;;10.43;82.67
3082;BME280;1551;51.046;7.010;2024-02-21T05:26:25;101400.94;;;10.49;82.19
3082;BME280;1551;51.046;7.010;2024-02-21T05:29:15;101411.19;;;10.48;82.18
3082;BME280;1551;51.046;7.010;2024-02-21T05:32:04;101403.53;;;10.48;81.84
3082;BME280;1551;51.046;7.010;2024-02-21T05:34:54;101389.84;;;10.46;82.16
3082;BME280;1551;51.046;7.010;2024-02-21T05:37:43;101382.19;;;10.43;82.36
3082;BME280;1551;51.046;7.010;2024-02-21T05:40:35;101384.72;;;10.46;81.62
3082;BME280;1551;51.046;7.010;2024-02-21T05:43:24;101381.34;;;10.45;82.55
3082;BME280;1551;51.046;7.010;2024-02-21T05:46:13;101379.63;;;10.43;82.92
3082;BME280;1551;51.046;7.010;2024-02-21T05:49:02;101383.03;;;10.45;81.64
3082;BME280;1551;51.046;7.010;2024-02-21T05:51:51;101383.88;;;10.42;82.03
3082;BME280;1551;51.046;7.010;2024-02-21T05:54:40;101386.41;;;10.39;82.28
3082;BME280;1551;51.046;7.010;2024-02-21T05:57:29;101385.56;;;10.35;81.73
3082;BME280;1551;51.046;7.010;2024-02-21T06:00:18;101385.56;;;10.32;81.46
3082;BME280;1551;51.046;7.010;2024-02-21T06:03:07;101381.31;;;10.36;82.33
3082;BME280;1551;51.046;7.010;2024-02-21T06:05:56;101379.63;;;10.43;82.51
3082;BME280;1551;51.046;7.010;2024-02-21T06:08:45;101379.59;;;10.46;81.42
3082;BME280;1551;51.046;7.010;2024-02-21T06:11:34;101371.09;;;10.50;82.11
3082;BME280;1551;51.046;7.010;2024-02-21T06:14:26;101366.84;;;10.61;81.81
3082;BME280;1551;51.046;7.010;2024-02-21T06:17:15;101360.00;;;10.60;81.04
3082;BME280;1551;51.046;7.010;2024-02-21T06:20:05;101367.69;;;10.60;79.91
3082;BME280;1551;51.046;7.010;2024-02-21T06:22:54;101316.50;;;10.48;79.92
3082;BME280;1551;51.046;7.010;2024-02-21T06:25:43;101341.25;;;10.61;78.75
3082;BME280;1551;51.046;7.010;2024-02-21T06:28:32;101354.03;;;10.67;77.75
3082;BME280;1551;51.046;7.010;2024-02-21T06:31:21;101339.53;;;10.70;77.44
3082;BME280;1551;51.046;7.010;2024-02-21T06:34:10;101345.50;;;10.69;77.03
3082;BME280;1551;51.046;7.010;2024-02-21T06:36:59;101340.41;;;10.71;76.93
3082;BME280;1551;51.046;7.010;2024-02-21T06:39:48;101333.56;;;10.76;76.84
3082;BME280;1551;51.046;7.010;2024-02-21T06:42:37;101326.72;;;10.81;76.35
3082;BME280;1551;51.046;7.010;2024-02-21T06:45:26;101333.56;;;10.86;76.42
3082;BME280;1551;51.046;7.010;2024-02-21T06:48:15;101321.59;;;10.87;76.34
3082;BME280;1551;51.046;7.010;2024-02-21T06:51:04;101322.44;;;10.90;75.59
3082;BME280;1551;51.046;7.010;2024-02-21T06:53:53;101318.19;;;10.79;76.16
3082;BME280;1551;51.046;7.010;2024-02-21T06:56:42;101320.75;;;10.79;76.50
3082;BME280;1551;51.046;7.010;2024-02-21T06:59:31;101316.50;;;10.70;76.49
3082;BME280;1551;51.046;7.010;2024-02-21T07:02:20;101320.75;;;10.61;77.59
3082;BME280;1551;51.046;7.010;2024-02-21T07:05:09;101316.50;;;10.57;78.16
3082;BME280;1551;51.046;7.010;2024-02-21T07:07:58;101311.38;;;10.57;78.52
3082;BME280;1551;51.046;7.010;2024-02-21T07:10:47;101298.56;;;10.51;78.60
3082;BME280;1551;51.046;7.010;2024-02-21T07:13:36;101310.53;;;10.59;78.84
3082;BME280;1551;51.046;7.010;2024-02-21T07:16:25;101303.72;;;10.64;79.26
3082;BME280;1551;51.046;7.010;2024-02-21T07:19:15;101309.69;;;10.62;79.71
3082;BME280;1551;51.046;7.010;2024-02-21T07:22:04;101302.00;;;10.71;79.99
3082;BME280;1551;51.046;7.010;2024-02-21T07:24:53;101297.72;;;10.68;79.97
3082;BME280;1551;51.046;7.010;2024-02-21T07:27:44;101295.16;;;10.65;79.93
3082;BME280;1551;51.046;7.010;2024-02-21T07:30:33;101297.72;;;10.77;80.84
3082;BME280;1551;51.046;7.010;2024-02-21T07:33:22;101301.13;;;10.79;80.77
3082;BME280;1551;51.046;7.010;2024-02-21T07:36:11;101301.13;;;10.79;80.48
3082;BME280;1551;51.046;7.010;2024-02-21T07:39:00;101296.00;;;10.79;80.80
3082;BME280;1551;51.046;7.010;2024-02-21T07:41:49;101290.00;;;10.86;80.45
3082;BME280;1551;51.046;7.010;2024-02-21T07:44:38;101290.00;;;10.95;80.52
3082;BME280;1551;51.046;7.010;2024-02-21T07:47:27;101292.53;;;11.00;79.93
3082;BME280;1551;51.046;7.010;2024-02-21T07:50:16;101290.00;;;10.94;79.49
3082;BME280;1551;51.046;7.010;2024-02-21T07:53:05;101279.75;;;10.94;79.83
3082;BME280;1551;51.046;7.010;2024-02-21T07:55:54;101277.22;;;10.92;79.31
3082;BME280;1551;51.046;7.010;2024-02-21T07:58:43;101273.78;;;10.92;79.07
3082;BME280;1551;51.046;7.010;2024-02-21T08:01:33;101282.34;;;10.92;79.65
3082;BME280;1551;51.046;7.010;2024-02-21T08:04:21;101275.47;;;10.93;78.88
3082;BME280;1551;51.046;7.010;2024-02-21T08:07:10;101272.06;;;10.95;78.83
3082;BME280;1551;51.046;7.010;2024-02-21T08:09:59;101262.69;;;10.88;79.14
3082;BME280;1551;51.046;7.010;2024-02-21T08:12:48;101255.00;;;10.94;79.17
3082;BME280;1551;51.046;7.010;2024-02-21T08:15:37;101261.88;;;10.77;78.84
3082;BME280;1551;51.046;7.010;2024-02-21T08:18:28;101246.53;;;10.71;79.33
3082;BME280;1551;51.046;7.010;2024-02-21T08:21:17;101248.25;;;10.59;79.13
3082;BME280;1551;51.046;7.010;2024-02-21T08:24:06;101239.72;;;10.58;79.63
3082;BME280;1551;51.046;7.010;2024-02-21T08:26:55;101233.75;;;10.49;79.32
3082;BME280;1551;51.046;7.010;2024-02-21T08:29:44;101238.03;;;10.50;80.08
3082;BME280;1551;51.046;7.010;2024-02-21T08:32:33;101230.31;;;10.44;79.77
3082;BME280;1551;51.046;7.010;2024-02-21T08:35:24;101233.75;;;10.40;79.98
3082;BME280;1551;51.046;7.010;2024-02-21T08:38:13;101219.25;;;10.38;80.21
3082;BME280;1551;51.046;7.010;2024-02-21T08:41:04;101220.09;;;10.44;80.35
3082;BME280;1551;51.046;7.010;2024-02-21T08:43:54;101209.00;;;10.38;79.39
3082;BME280;1551;51.046;7.010;2024-02-21T08:46:42;101207.31;;;10.38;79.62
3082;BME280;1551;51.046;7.010;2024-02-21T08:49:31;101212.44;;;10.41;79.53
3082;BME280;1551;51.046;7.010;2024-02-21T08:52:21;101195.38;;;10.36;80.15
3082;BME280;1551;51.046;7.010;2024-02-21T08:55:10;101202.19;;;10.42;79.86
3082;BME280;1551;51.046;7.010;2024-02-21T08:58:00;101183.41;;;10.38;79.92
3082;BME280;1551;51.046;7.010;2024-02-21T09:00:49;101186.84;;;10.45;80.07
3082;BME280;1551;51.046;7.010;2024-02-21T09:03:39;101186.84;;;10.50;79.25
3082;BME280;1551;51.046;7.010;2024-02-21T09:06:28;101185.13;;;10.44;78.81
3082;BME280;1551;51.046;7.010;2024-02-21T09:09:18;101182.56;;;10.53;79.29
3082;BME280;1551;51.046;7.010;2024-02-21T09:12:07;101176.53;;;10.65;78.71
3082;BME280;1551;51.046;7.010;2024-02-21T09:14:56;101160.31;;;10.72;78.00
3082;BME280;1551;51.046;7.010;2024-02-21T09:17:45;101155.19;;;10.79;77.78
3082;BME280;1551;51.046;7.010;2024-02-21T09:20:35;101170.47;;;10.96;77.06
3082;BME280;1551;51.046;7.010;2024-02-21T09:23:24;101159.34;;;11.04;76.62
3082;BME280;1551;51.046;7.010;2024-02-21T09:26:13;101160.97;;;11.16;75.40
3082;BME280;1551;51.046;7.010;2024-02-21T09:29:04;101147.28;;;11.25;75.74
3082;BME280;1551;51.046;7.010;2024-02-21T09:31:53;101155.84;;;11.21;75.04
3082;BME280;1551;51.046;7.010;2024-02-21T09:34:42;101150.75;;;11.12;75.41
3082;BME280;1551;51.046;7.010;2024-02-21T09:37:32;101154.16;;;11.14;75.34
3082;BME280;1551;51.046;7.010;2024-02-21T09:40:21;101151.53;;;11.26;75.01
3082;BME280;1551;51.046;7.010;2024-02-21T09:43:10;101128.41;;;11.38;74.13
3082;BME280;1551;51.046;7.010;2024-02-21T09:45:59;101135.09;;;11.58;74.20
3082;BME280;1551;51.046;7.010;2024-02-21T09:49:04;101123.94;;;11.71;72.81
3082;BME280;1551;51.046;7.010;2024-02-21T09:51:57;101127.38;;;11.64;71.81
3082;BME280;1551;51.046;7.010;2024-02-21T09:54:47;101130.03;;;11.55;71.29
3082;BME280;1551;51.046;7.010;2024-02-21T09:57:38;101129.06;;;11.71;70.73
3082;BME280;1551;51.046;7.010;2024-02-21T10:00:27;101113.63;;;11.78;70.42
3082;BME280;1551;51.046;7.010;2024-02-21T10:03:16;101114.25;;;12.04;69.04
3082;BME280;1551;51.046;7.010;2024-02-21T10:06:05;101111.63;;;12.10;68.25
3082;BME280;1551;51.046;7.010;2024-02-21T10:08:54;101121.69;;;12.29;67.57
3082;BME280;1551;51.046;7.010;2024-02-21T10:11:43;101115.63;;;12.36;66.73
3082;BME280;1551;51.046;7.010;2024-02-21T10:14:32;101129.25;;;12.45;66.50
3082;BME280;1551;51.046;7.010;2024-02-21T10:17:21;101123.25;;;12.47;66.37
3082;BME280;1551;51.046;7.010;2024-02-21T10:20:11;101117.47;;;12.25;66.74
3082;BME280;1551;51.046;7.010;2024-02-21T10:23:05;101109.84;;;12.18;67.31
3082;BME280;1551;51.046;7.010;2024-02-21T10:26:05;101108.97;;;12.20;67.07
3082;BME280;1551;51.046;7.010;2024-02-21T10:28:54;101114.06;;;12.22;66.92
3082;BME280;1551;51.046;7.010;2024-02-21T10:31:44;101107.25;;;12.19;66.83
3082;BME280;1551;51.046;7.010;2024-02-21T10:34:34;101101.16;;;12.32;67.05
3082;BME280;1551;51.046;7.010;2024-02-21T10:37:24;101102.63;;;12.53;66.23
3082;BME280;1551;51.046;7.010;2024-02-21T10:40:13;101102.69;;;12.47;66.05
3082;BME280;1551;51.046;7.010;2024-02-21T10:43:02;101083.63;;;12.66;65.85
3082;BME280;1551;51.046;7.010;2024-02-21T10:45:53;101082.88;;;13.24;64.09
3082;BME280;1551;51.046;7.010;2024-02-21T10:48:44;101066.56;;;13.25;63.21
3082;BME280;1551;51.046;7.010;2024-02-21T10:51:37;101068.06;;;13.41;63.21
3082;BME280;1551;51.046;7.010;2024-02-21T10:57:24;101061.06;;;13.49;61.70
3082;BME280;1551;51.046;7.010;2024-02-21T11:00:17;101062.47;;;13.15;61.82
3082;BME280;1551;51.046;7.010;2024-02-21T11:03:08;101046.34;;;12.99;62.40
3082;BME280;1551;51.046;7.010;2024-02-21T11:05:58;101038.22;;;13.31;62.36
3082;BME280;1551;51.046;7.010;2024-02-21T11:08:48;101017.78;;;13.73;61.07
3082;BME280;1551;51.046;7.010;2024-02-21T11:11:49;100994.56;;;13.76;59.73
3082;BME280;1551;51.046;7.010;2024-02-21T11:14:38;101002.88;;;13.92;59.81
3082;BME280;1551;51.046;7.010;2024-02-21T11:17:28;101000.47;;;14.69;58.69
3082;BME280;1551;51.046;7.010;2024-02-21T11:20:18;100983.16;;;15.12;57.93
3082;BME280;1551;51.046;7.010;2024-02-21T11:23:07;100985.34;;;15.27;56.21
3082;BME280;1551;51.046;7.010;2024-02-21T11:31:48;100943.59;;;14.76;57.13
3082;BME280;1551;51.046;7.010;2024-02-21T11:34:37;100928.97;;;14.40;57.36
3082;BME280;1551;51.046;7.010;2024-02-21T11:37:25;100922.63;;;14.15;58.43
3082;BME280;1551;51.046;7.010;2024-02-21T11:40:17;100903.16;;;14.02;58.75
3082;BME280;1551;51.046;7.010;2024-02-21T11:43:05;100897.38;;;13.91;58.99
3082;BME280;1551;51.046;7.010;2024-02-21T11:46:00;100878.22;;;13.62;59.60
3082;BME280;1551;51.046;7.010;2024-02-21T11:48:49;100890.34;;;13.56;59.97
3082;BME280;1551;51.046;7.010;2024-02-21T11:51:39;100873.94;;;13.63;59.88
3082;BME280;1551;51.046;7.010;2024-02-21T11:54:28;100872.16;;;13.65;59.66
3082;BME280;1551;51.046;7.010;2024-02-21T11:57:17;100865.03;;;13.81;59.66
3082;BME280;1551;51.046;7.010;2024-02-21T12:00:17;100857.44;;;13.73;58.87
3082;BME280;1551;51.046;7.010;2024-02-21T12:03:07;100842.41;;;13.53;59.71
3082;BME280;1551;51.046;7.010;2024-02-21T12:05:57;100845.69;;;13.60;60.24
3082;BME280;1551;51.046;7.010;2024-02-21T12:08:47;100819.59;;;13.37;60.15
3082;BME280;1551;51.046;7.010;2024-02-21T12:11:36;100817.31;;;13.64;59.94
3082;BME280;1551;51.046;7.010;2024-02-21T12:14:28;100815.47;;;13.71;59.43
3082;BME280;1551;51.046;7.010;2024-02-21T12:17:19;100796.91;;;13.57;59.72
3082;BME280;1551;51.046;7.010;2024-02-21T12:20:09;100783.91;;;13.63;59.36
3082;BME280;1551;51.046;7.010;2024-02-21T12:23:01;100773.63;;;13.22;60.13
3082;BME280;1551;51.046;7.010;2024-02-21T12:25:51;100772.97;;;13.12;60.48
3082;BME280;1551;51.046;7.010;2024-02-21T12:28:43;100749.94;;;13.07;60.81
3082;BME280;1551;51.046;7.010;2024-02-21T12:31:32;100757.31;;;13.24;60.69
3082;BME280;1551;51.046;7.010;2024-02-21T12:34:21;100733.28;;;13.27;60.89
3082;BME280;1551;51.046;7.010;2024-02-21T12:37:11;100737.06;;;13.49;60.13
3082;BME280;1551;51.046;7.010;2024-02-21T12:40:05;100720.63;;;13.56;59.56
3082;BME280;1551;51.046;7.010;2024-02-21T12:42:55;100717.75;;;13.71;59.57
3082;BME280;1551;51.046;7.010;2024-02-21T12:45:44;100690.63;;;13.93;59.81
3082;BME280;1551;51.046;7.010;2024-02-21T12:48:33;100687.31;;;13.88;59.61
3082;BME280;1551;51.046;7.010;2024-02-21T12:51:22;100663.03;;;14.33;58.60
3082;BME280;1551;51.046;7.010;2024-02-21T12:54:11;100610.56;;;14.70;57.20
3082;BME280;1551;51.046;7.010;2024-02-21T12:57:00;100580.22;;;14.79;56.79
3082;BME280;1551;51.046;7.010;2024-02-21T12:59:51;100572.16;;;15.19;56.17
3082;BME280;1551;51.046;7.010;2024-02-21T13:02:40;100618.22;;;15.57;54.38
3082;BME280;1551;51.046;7.010;2024-02-21T13:05:29;100646.56;;;15.85;54.23
3082;BME280;1551;51.046;7.010;2024-02-21T13:08:20;100666.94;;;15.68;54.34
3082;BME280;1551;51.046;7.010;2024-02-21T13:11:12;100668.91;;;15.01;54.37
3082;BME280;1551;51.046;7.010;2024-02-21T13:14:01;100591.03;;;14.61;56.08
3082;BME280;1551;51.046;7.010;2024-02-21T13:16:50;100596.97;;;14.63;56.28
3082;BME280;1551;51.046;7.010;2024-02-21T13:19:39;100596.97;;;14.65;55.81
3082;BME280;1551;51.046;7.010;2024-02-21T13:22:28;100613.75;;;14.78;55.93
3082;BME280;1551;51.046;7.010;2024-02-21T13:25:17;100583.63;;;14.51;55.97
3082;BME280;1551;51.046;7.010;2024-02-21T13:28:09;100599.94;;;14.51;56.39
3082;BME280;1551;51.046;7.010;2024-02-21T13:30:58;100593.94;;;14.18;56.38
3082;BME280;1551;51.046;7.010;2024-02-21T13:33:47;100572.13;;;14.31;56.59
3082;BME280;1551;51.046;7.010;2024-02-21T13:36:36;100591.50;;;14.44;56.16
3082;BME280;1551;51.046;7.010;2024-02-21T13:39:25;100587.34;;;14.40;56.31
3082;BME280;1551;51.046;7.010;2024-02-21T13:42:14;100580.47;;;14.39;56.11
3082;BME280;1551;51.046;7.010;2024-02-21T13:45:04;100566.53;;;14.16;56.88
3082;BME280;1551;51.046;7.010;2024-02-21T13:47:57;100552.75;;;14.18;57.03
3082;BME280;1551;51.046;7.010;2024-02-21T13:50:47;100553.41;;;13.93;57.18
3082;BME280;1551;51.046;7.010;2024-02-21T13:53:36;100549.94;;;13.61;57.84
3082;BME280;1551;51.046;7.010;2024-02-21T13:56:25;100563.38;;;13.37;58.65
3082;BME280;1551;51.046;7.010;2024-02-21T13:59:15;100530.41;;;13.18;58.80
3082;BME280;1551;51.046;7.010;2024-02-21T14:02:05;100538.22;;;13.15;59.17
3082;BME280;1551;51.046;7.010;2024-02-21T14:04:57;100534.47;;;13.28;59.01
3082;BME280;1551;51.046;7.010;2024-02-21T14:07:46;100518.41;;;13.20;59.12
3082;BME280;1551;51.046;7.010;2024-02-21T14:10:35;100520.75;;;13.27;59.26
3082;BME280;1551;51.046;7.010;2024-02-21T14:13:24;100502.19;;;13.16;59.35
3082;BME280;1551;51.046;7.010;2024-02-21T14:16:12;100497.78;;;13.21;59.32
3082;BME280;1551;51.046;7.010;2024-02-21T14:19:04;100502.00;;;13.24;59.31
3082;BME280;1551;51.046;7.010;2024-02-21T14:21:56;100494.00;;;13.36;59.52
3082;BME280;1551;51.046;7.010;2024-02-21T14:24:45;100500.06;;;13.33;59.75
3082;BME280;1551;51.046;7.010;2024-02-21T14:27:34;100480.59;;;13.23;59.91
3082;BME280;1551;51.046;7.010;2024-02-21T14:30:26;100464.19;;;13.29;60.14
3082;BME280;1551;51.046;7.010;2024-02-21T14:33:15;100486.13;;;13.06;60.50
3082;BME280;1551;51.046;7.010;2024-02-21T14:36:04;100461.94;;;13.17;61.06
3082;BME280;1551;51.046;7.010;2024-02-21T14:38:53;100453.97;;;13.26;60.74
3082;BME280;1551;51.046;7.010;2024-02-21T14:41:43;100436.00;;;13.26;60.69
3082;BME280;1551;51.046;7.010;2024-02-21T14:44:32;100436.91;;;13.23;60.87
3082;BME280;1551;51.046;7.010;2024-02-21T14:47:21;100430.50;;;13.39;60.86
3082;BME280;1551;51.046;7.010;2024-02-21T14:50:10;100423.06;;;13.29;60.90
3082;BME280;1551;51.046;7.010;2024-02-21T14:52:59;100414.22;;;13.39;60.41
3082;BME280;1551;51.046;7.010;2024-02-21T14:55:48;100410.03;;;13.36;60.25
3082;BME280;1551;51.046;7.010;2024-02-21T14:58:38;100410.13;;;13.32;60.31
3082;BME280;1551;51.046;7.010;2024-02-21T15:01:27;100401.63;;;13.30;60.47
3082;BME280;1551;51.046;7.010;2024-02-21T15:04:16;100400.88;;;13.25;61.03
3082;BME280;1551;51.046;7.010;2024-02-21T15:07:05;100392.50;;;13.18;60.72
3082;BME280;1551;51.046;7.010;2024-02-21T15:09:54;100390.72;;;13.20;60.69
3082;BME280;1551;51.046;7.010;2024-02-21T15:12:44;100383.00;;;13.20;60.84
3082;BME280;1551;51.046;7.010;2024-02-21T15:15:33;100385.28;;;13.32;60.94
3082;BME280;1551;51.046;7.010;2024-02-21T15:18:22;100382.03;;;13.26;60.83